Volgoneft-207 — UABC3 — position and weather

sailwx.info

Track history (hours):
 
Tides and Currents Weather Stations Pressure Air Temp Water Temp Dewpoint Dewpoint Depression Visibility Wind Speed Wind Dir Waves Ship Positions

Volgoneft-207

Last reported at 2017-Nov-09 11:07 UTC. Time now 2017-Nov-24 16:52 UTC.
Position N 45°33' E 036°50'.
Warning: this ship's position is 15 days out of date.

Length 132 m; draft 3.5 m.

Type: Tanker. MMSI: 273448590.

Date/timePositionNaut miles runAvg speedWind from/ knotsBaromVisibWave heightAir tempDewpointWater temp
2017-Nov-09 11:07N 45°33' E 036°50'1 4.9
2017-Nov-09 10:56N 45°32' E 036°49'3 2.2
2017-Nov-09 09:45N 45°30' E 036°48'0 0.0
2017-Nov-09 09:27N 45°30' E 036°48'0 0.0
2017-Nov-09 08:44N 45°30' E 036°48'0 0.0
2017-Nov-09 08:28N 45°30' E 036°48'0 0.0
2017-Nov-09 07:57N 45°30' E 036°48'0 0.0
2017-Nov-09 07:28N 45°30' E 036°48'0 0.0
2017-Nov-09 06:54N 45°30' E 036°48'0 0.0
2017-Nov-09 06:26N 45°30' E 036°48'0 0.0
2017-Nov-09 06:00N 45°30' E 036°48'0 0.0
2017-Nov-09 05:30N 45°30' E 036°48'1 2.6
2017-Nov-09 05:00N 45°29' E 036°47'2 4.9
2017-Nov-09 04:30N 45°28' E 036°44'2 4.6
2017-Nov-09 04:00N 45°26' E 036°42'3 5.2
2017-Nov-09 03:30N 45°24' E 036°41'3 5.2
2017-Nov-09 03:00N 45°21' E 036°40'2 5.0
2017-Nov-09 02:30N 45°20' E 036°37'2 4.9
2017-Nov-09 02:00N 45°19' E 036°33'3 5.3
2017-Nov-09 01:30N 45°18' E 036°30'2 4.8
2017-Nov-09 01:00N 45°16' E 036°29'3 5.2
2017-Nov-09 00:30N 45°14' E 036°29'1 2.4
2017-Nov-09 00:00N 45°13' E 036°31'8 1.5
2017-Nov-08 18:47N 45°06' E 036°34'0 0.0
2017-Nov-08 14:15N 45°06' E 036°34'0 0.0
2017-Nov-08 13:57N 45°06' E 036°34'0 0.0
2017-Nov-08 13:30N 45°06' E 036°34'1 0.2
2017-Nov-08 10:15N 45°06' E 036°33'2 1.9
2017-Nov-08 09:07N 45°08' E 036°32'1 4.7
2017-Nov-08 09:00N 45°08' E 036°32'2 1.1
2017-Nov-08 06:57N 45°11' E 036°32'2 2.9
2017-Nov-08 06:25N 45°09' E 036°32'3 1.1
2017-Nov-08 04:06N 45°09' E 036°28'2 6.0
2017-Nov-08 03:46N 45°11' E 036°28'2 6.1
2017-Nov-08 03:30N 45°13' E 036°28'3 5.8
2017-Nov-08 03:00N 45°16' E 036°28'3 5.7
2017-Nov-08 02:30N 45°18' E 036°30'3 5.9
2017-Nov-08 02:00N 45°19' E 036°34'3 5.3
2017-Nov-08 01:30N 45°20' E 036°37'2 4.2
2017-Nov-08 01:00N 45°21' E 036°40'2 4.1
2017-Nov-08 00:30N 45°23' E 036°40'2 3.3
2017-Nov-08 00:00N 45°25' E 036°41'2 3.3
2017-Nov-07 23:30N 45°26' E 036°42'3 5.3
2017-Nov-07 23:00N 45°28' E 036°45'2 4.8
2017-Nov-07 22:30N 45°29' E 036°48'1 0.8
2017-Nov-07 20:42N 45°29' E 036°50'0 0.0
2017-Nov-07 20:17N 45°29' E 036°50'0 0.0
2017-Nov-07 19:38N 45°29' E 036°50'0 0.0
2017-Nov-07 18:01N 45°29' E 036°50'0 0.0
2017-Nov-07 17:57N 45°29' E 036°50'0 0.0
2017-Nov-07 17:30N 45°29' E 036°50'0 0.0
2017-Nov-07 13:25N 45°29' E 036°50'0 0.0
2017-Nov-07 13:00N 45°29' E 036°50'0 0.0
2017-Nov-07 12:20N 45°29' E 036°50'0 0.0
2017-Nov-07 11:22N 45°29' E 036°50'0 0.0
2017-Nov-07 09:24N 45°29' E 036°50'0 0.0
2017-Nov-07 08:59N 45°29' E 036°50'0 0.0
2017-Nov-07 07:47N 45°29' E 036°50'0 0.0
2017-Nov-07 07:30N 45°29' E 036°50'0 0.0
2017-Nov-07 06:57N 45°29' E 036°50'0 0.0
2017-Nov-07 06:23N 45°29' E 036°50'0 0.0
2017-Nov-07 05:58N 45°29' E 036°50'0 0.0
2017-Nov-07 05:30N 45°29' E 036°50'0 0.0
2017-Nov-07 04:47N 45°29' E 036°50'0 0.0
2017-Nov-06 22:18N 45°29' E 036°50'0 0.0
2017-Nov-06 21:52N 45°29' E 036°50'0 0.0
2017-Nov-06 21:06N 45°29' E 036°50'0 0.0
2017-Nov-06 20:37N 45°29' E 036°50'0 0.0
2017-Nov-05 11:09N 45°29' E 036°50'0 0.0
2017-Nov-05 11:00N 45°29' E 036°50'0 0.0
2017-Nov-05 09:27N 45°29' E 036°50'0 0.0
2017-Nov-05 08:56N 45°29' E 036°50'0 0.0
2017-Nov-05 08:23N 45°29' E 036°50'0 0.0
2017-Nov-05 07:59N 45°29' E 036°50'0 0.0
2017-Nov-05 00:22N 45°29' E 036°50'0 0.0
2017-Nov-05 00:00N 45°29' E 036°50'0 0.0
2017-Nov-04 18:53N 45°29' E 036°50'0 0.0
2017-Nov-04 10:28N 45°29' E 036°51'0 0.0
2017-Nov-04 10:00N 45°29' E 036°51'0 0.0
2017-Nov-04 09:30N 45°29' E 036°51'0 0.0
2017-Nov-04 08:13N 45°29' E 036°51'0 0.0
2017-Nov-04 07:56N 45°29' E 036°51'0 0.0
2017-Nov-04 07:29N 45°29' E 036°51'0 0.0
2017-Nov-04 07:00N 45°29' E 036°51'0 0.0
2017-Nov-04 06:30N 45°29' E 036°51'0 0.0
2017-Nov-04 05:23N 45°29' E 036°51'0 0.0
2017-Nov-04 05:00N 45°29' E 036°51'0 0.0
2017-Nov-04 04:30N 45°29' E 036°51'0 0.0
2017-Nov-04 03:58N 45°29' E 036°51'0 0.0
2017-Nov-04 03:05N 45°29' E 036°51'0 0.1
2017-Nov-04 02:34N 45°29' E 036°50'0 0.0
2017-Nov-04 01:32N 45°29' E 036°50'0 0.0
2017-Nov-04 01:30N 45°29' E 036°50'0 0.0
2017-Nov-04 01:00N 45°29' E 036°50'0 0.0
2017-Nov-03 19:20N 45°29' E 036°51'0 0.0
2017-Nov-03 18:20N 45°29' E 036°51'0 0.0
2017-Nov-03 11:58N 45°29' E 036°51'0 0.0
2017-Nov-03 10:57N 45°29' E 036°51'0 0.0
2017-Nov-03 10:30N 45°29' E 036°51'0 0.0
2017-Nov-03 10:00N 45°29' E 036°51'1 1.5
2017-Nov-03 09:25N 45°30' E 036°51'  
Track history (hours):
 
Tides and Currents Weather Stations Pressure Air Temp Water Temp Dewpoint Dewpoint Depression Visibility Wind Speed Wind Dir Waves Ship Positions

Volgoneft-207

Last reported at 2017-Nov-09 11:07 UTC. Time now 2017-Nov-24 16:52 UTC.
Position N 45°33' E 036°50'.
Warning: this ship's position is 15 days out of date.

Length 132 m; draft 3.5 m.

Type: Tanker. MMSI: 273448590.

Date/timePositionNaut miles runAvg speedWind from/ knotsBaromVisibWave heightAir tempDewpointWater temp
2017-Nov-09 11:07N 45°33' E 036°50'1 4.9
2017-Nov-09 10:56N 45°32' E 036°49'3 2.2
2017-Nov-09 09:45N 45°30' E 036°48'0 0.0
2017-Nov-09 09:27N 45°30' E 036°48'0 0.0
2017-Nov-09 08:44N 45°30' E 036°48'0 0.0
2017-Nov-09 08:28N 45°30' E 036°48'0 0.0
2017-Nov-09 07:57N 45°30' E 036°48'0 0.0
2017-Nov-09 07:28N 45°30' E 036°48'0 0.0
2017-Nov-09 06:54N 45°30' E 036°48'0 0.0
2017-Nov-09 06:26N 45°30' E 036°48'0 0.0
2017-Nov-09 06:00N 45°30' E 036°48'0 0.0
2017-Nov-09 05:30N 45°30' E 036°48'1 2.6
2017-Nov-09 05:00N 45°29' E 036°47'2 4.9
2017-Nov-09 04:30N 45°28' E 036°44'2 4.6
2017-Nov-09 04:00N 45°26' E 036°42'3 5.2
2017-Nov-09 03:30N 45°24' E 036°41'3 5.2
2017-Nov-09 03:00N 45°21' E 036°40'2 5.0
2017-Nov-09 02:30N 45°20' E 036°37'2 4.9
2017-Nov-09 02:00N 45°19' E 036°33'3 5.3
2017-Nov-09 01:30N 45°18' E 036°30'2 4.8
2017-Nov-09 01:00N 45°16' E 036°29'3 5.2
2017-Nov-09 00:30N 45°14' E 036°29'1 2.4
2017-Nov-09 00:00N 45°13' E 036°31'8 1.5
2017-Nov-08 18:47N 45°06' E 036°34'0 0.0
2017-Nov-08 14:15N 45°06' E 036°34'0 0.0
2017-Nov-08 13:57N 45°06' E 036°34'0 0.0
2017-Nov-08 13:30N 45°06' E 036°34'1 0.2
2017-Nov-08 10:15N 45°06' E 036°33'2 1.9
2017-Nov-08 09:07N 45°08' E 036°32'1 4.7
2017-Nov-08 09:00N 45°08' E 036°32'2 1.1
2017-Nov-08 06:57N 45°11' E 036°32'2 2.9
2017-Nov-08 06:25N 45°09' E 036°32'3 1.1
2017-Nov-08 04:06N 45°09' E 036°28'2 6.0
2017-Nov-08 03:46N 45°11' E 036°28'2 6.1
2017-Nov-08 03:30N 45°13' E 036°28'3 5.8
2017-Nov-08 03:00N 45°16' E 036°28'3 5.7
2017-Nov-08 02:30N 45°18' E 036°30'3 5.9
2017-Nov-08 02:00N 45°19' E 036°34'3 5.3
2017-Nov-08 01:30N 45°20' E 036°37'2 4.2
2017-Nov-08 01:00N 45°21' E 036°40'2 4.1
2017-Nov-08 00:30N 45°23' E 036°40'2 3.3
2017-Nov-08 00:00N 45°25' E 036°41'2 3.3
2017-Nov-07 23:30N 45°26' E 036°42'3 5.3
2017-Nov-07 23:00N 45°28' E 036°45'2 4.8
2017-Nov-07 22:30N 45°29' E 036°48'1 0.8
2017-Nov-07 20:42N 45°29' E 036°50'0 0.0
2017-Nov-07 20:17N 45°29' E 036°50'0 0.0
2017-Nov-07 19:38N 45°29' E 036°50'0 0.0
2017-Nov-07 18:01N 45°29' E 036°50'0 0.0
2017-Nov-07 17:57N 45°29' E 036°50'0 0.0
2017-Nov-07 17:30N 45°29' E 036°50'0 0.0
2017-Nov-07 13:25N 45°29' E 036°50'0 0.0
2017-Nov-07 13:00N 45°29' E 036°50'0 0.0
2017-Nov-07 12:20N 45°29' E 036°50'0 0.0
2017-Nov-07 11:22N 45°29' E 036°50'0 0.0
2017-Nov-07 09:24N 45°29' E 036°50'0 0.0
2017-Nov-07 08:59N 45°29' E 036°50'0 0.0
2017-Nov-07 07:47N 45°29' E 036°50'0 0.0
2017-Nov-07 07:30N 45°29' E 036°50'0 0.0
2017-Nov-07 06:57N 45°29' E 036°50'0 0.0
2017-Nov-07 06:23N 45°29' E 036°50'0 0.0
2017-Nov-07 05:58N 45°29' E 036°50'0 0.0
2017-Nov-07 05:30N 45°29' E 036°50'0 0.0
2017-Nov-07 04:47N 45°29' E 036°50'0 0.0
2017-Nov-06 22:18N 45°29' E 036°50'0 0.0
2017-Nov-06 21:52N 45°29' E 036°50'0 0.0
2017-Nov-06 21:06N 45°29' E 036°50'0 0.0
2017-Nov-06 20:37N 45°29' E 036°50'0 0.0
2017-Nov-05 11:09N 45°29' E 036°50'0 0.0
2017-Nov-05 11:00N 45°29' E 036°50'0 0.0
2017-Nov-05 09:27N 45°29' E 036°50'0 0.0
2017-Nov-05 08:56N 45°29' E 036°50'0 0.0
2017-Nov-05 08:23N 45°29' E 036°50'0 0.0
2017-Nov-05 07:59N 45°29' E 036°50'0 0.0
2017-Nov-05 00:22N 45°29' E 036°50'0 0.0
2017-Nov-05 00:00N 45°29' E 036°50'0 0.0
2017-Nov-04 18:53N 45°29' E 036°50'0 0.0
2017-Nov-04 10:28N 45°29' E 036°51'0 0.0
2017-Nov-04 10:00N 45°29' E 036°51'0 0.0
2017-Nov-04 09:30N 45°29' E 036°51'0 0.0
2017-Nov-04 08:13N 45°29' E 036°51'0 0.0
2017-Nov-04 07:56N 45°29' E 036°51'0 0.0
2017-Nov-04 07:29N 45°29' E 036°51'0 0.0
2017-Nov-04 07:00N 45°29' E 036°51'0 0.0
2017-Nov-04 06:30N 45°29' E 036°51'0 0.0
2017-Nov-04 05:23N 45°29' E 036°51'0 0.0
2017-Nov-04 05:00N 45°29' E 036°51'0 0.0
2017-Nov-04 04:30N 45°29' E 036°51'0 0.0
2017-Nov-04 03:58N 45°29' E 036°51'0 0.0
2017-Nov-04 03:05N 45°29' E 036°51'0 0.1
2017-Nov-04 02:34N 45°29' E 036°50'0 0.0
2017-Nov-04 01:32N 45°29' E 036°50'0 0.0
2017-Nov-04 01:30N 45°29' E 036°50'0 0.0
2017-Nov-04 01:00N 45°29' E 036°50'0 0.0
2017-Nov-03 19:20N 45°29' E 036°51'0 0.0
2017-Nov-03 18:20N 45°29' E 036°51'0 0.0
2017-Nov-03 11:58N 45°29' E 036°51'0 0.0
2017-Nov-03 10:57N 45°29' E 036°51'0 0.0
2017-Nov-03 10:30N 45°29' E 036°51'0 0.0
2017-Nov-03 10:00N 45°29' E 036°51'1 1.5
2017-Nov-03 09:25N 45°30' E 036°51'  

Dump ship's entire track history